Time;durP1;ratioP1;P1;durP2;ratioP2;P2;SDS_P1;SDS_P2;PMS_P1;PMS_P2;Temp;Humidity;BMP_temperature;BMP_pressure;BME280_temperature;BME280_humidity;BME280_pressure;Samples;Min_cycle;Max_cycle;Signal;HPM_P1;HPM_P2
2021/04/06 00:00:23;;;;;;;7.50;0.93;;;;;;;;;;5003593;28;20117;-56
2021/04/06 00:02:52;;;;;;;10.52;1.40;;;;;;;;;;5022935;28;20094;-56
2021/04/06 00:05:17;;;;;;;;;;;;;;;;;;5039944;28;20033;-56
2021/04/06 00:07:45;;;;;;;8.43;1.10;;;;;;;;;;5002902;28;19929;-55
2021/04/06 00:10:13;;;;;;;7.70;1.13;;;;;;;;;;5005869;28;20053;-55
2021/04/06 00:12:40;;;;;;;10.45;1.35;;;;;;;;;;4999464;28;20097;-57
2021/04/06 00:15:08;;;;;;;8.27;1.10;;;;;;;;;;5032024;28;20443;-59
2021/04/06 00:17:34;;;;;;;12.55;1.30;;;;;;;;;;5020018;28;20774;-57
2021/04/06 00:20:01;;;;;;;4.93;0.93;;;;;;;;;;5024238;28;20061;-57
2021/04/06 00:22:29;;;;;;;17.70;1.45;;;;;;;;;;5019544;28;20101;-57
2021/04/06 00:24:56;;;;;;;9.35;1.33;;;;;;;;;;5019368;28;20042;-59
2021/04/06 00:27:23;;;;;;;9.68;1.25;;;;;;;;;;5027155;28;20033;-54
2021/04/06 00:29:50;;;;;;;6.15;1.08;;;;;;;;;;5041512;28;20112;-55
2021/04/06 00:32:24;;;;;;;7.90;1.47;;;;;;;;;;5030451;28;20041;-56
2021/04/06 00:34:52;;;;;;;11.15;1.20;;;;;;;;;;5005354;28;20274;-55
2021/04/06 00:37:18;;;;;;;7.82;0.98;;;;;;;;;;5019543;28;20693;-54
2021/04/06 00:39:44;;;;;;;9.45;1.50;;;;;;;;;;5005549;28;20053;-55
2021/04/06 00:42:13;;;;;;;8.52;1.17;;;;;;;;;;5001545;28;20053;-57
2021/04/06 00:44:42;;;;;;;7.15;1.00;;;;;;;;;;5024511;28;20125;-53
2021/04/06 00:47:11;;;;;;;10.60;1.10;;;;;;;;;;5019323;28;20118;-56
2021/04/06 00:49:36;;;;;;;;;;;;;;;;;;5020818;28;20123;-54
2021/04/06 00:52:03;;;;;;;9.65;1.23;;;;;;;;;;5020126;28;19917;-55
2021/04/06 00:54:29;;;;;;;7.25;1.35;;;;;;;;;;5038703;28;20045;-55
2021/04/06 00:56:57;;;;;;;8.43;1.42;;;;;;;;;;5023468;28;20041;-54
2021/04/06 00:59:24;;;;;;;5.20;0.90;;;;;;;;;;5004183;28;20045;-54
2021/04/06 01:01:53;;;;;;;5.50;1.20;;;;;;;;;;5006980;28;20409;-57
2021/04/06 01:04:21;;;;;;;12.43;1.73;;;;;;;;;;5015351;28;20033;-55
2021/04/06 01:06:52;;;;;;;7.70;1.58;;;;;;;;;;5026365;28;20029;-58
2021/04/06 01:09:18;;;;;;;9.95;1.02;;;;;;;;;;5022054;28;20037;-60
2021/04/06 01:11:45;;;;;;;7.10;1.00;;;;;;;;;;5026060;28;20048;-59
2021/04/06 01:14:14;;;;;;;5.57;1.10;;;;;;;;;;5011244;28;20052;-56
2021/04/06 01:16:40;;;;;;;;;;;;;;;;;;5004753;28;20123;-54
2021/04/06 01:19:07;;;;;;;9.48;1.58;;;;;;;;;;5001929;28;19936;-60
2021/04/06 01:21:34;;;;;;;12.15;1.55;;;;;;;;;;5007126;28;20040;-60
2021/04/06 01:24:06;;;;;;;14.02;1.13;;;;;;;;;;5003137;28;20042;-55
2021/04/06 01:26:32;;;;;;;4.90;1.00;;;;;;;;;;5021826;28;20038;-58
2021/04/06 01:28:58;;;;;;;6.93;0.90;;;;;;;;;;5023962;28;20049;-59
2021/04/06 01:31:25;;;;;;;7.82;1.10;;;;;;;;;;5046034;28;20095;-59
2021/04/06 01:33:51;;;;;;;9.05;1.50;;;;;;;;;;5038568;28;20041;-58
2021/04/06 01:36:17;;;;;;;15.50;1.45;;;;;;;;;;5007084;28;20364;-56
2021/04/06 01:38:43;;;;;;;15.93;1.23;;;;;;;;;;5024888;28;20042;-56
2021/04/06 01:41:10;;;;;;;12.10;1.60;;;;;;;;;;5004565;28;20042;-51
2021/04/06 01:43:39;;;;;;;11.60;1.15;;;;;;;;;;5023252;28;20045;-53
2021/04/06 01:46:14;;;;;;;13.55;1.02;;;;;;;;;;5016453;28;20045;-53
2021/04/06 01:48:40;;;;;;;7.88;1.27;;;;;;;;;;5025221;28;20057;-59
2021/04/06 01:51:06;;;;;;;10.63;1.38;;;;;;;;;;5006785;28;20370;-59
2021/04/06 01:53:34;;;;;;;7.22;1.00;;;;;;;;;;5006952;28;20057;-50
2021/04/06 01:56:02;;;;;;;5.50;1.02;;;;;;;;;;5001884;28;20033;-53
2021/04/06 01:58:32;;;;;;;6.78;1.27;;;;;;;;;;5023520;28;20053;-53
2021/04/06 02:01:10;;;;;;;13.60;1.50;;;;;;;;;;5008479;28;20045;-58
2021/04/06 02:03:41;;;;;;;6.72;1.10;;;;;;;;;;5026270;28;20043;-53
2021/04/06 02:06:09;;;;;;;7.82;1.50;;;;;;;;;;5028547;28;20131;-58
2021/04/06 02:08:35;;;;;;;11.53;1.27;;;;;;;;;;5023747;28;20044;-58
2021/04/06 02:11:01;;;;;;;12.90;1.85;;;;;;;;;;5004285;28;20303;-59
2021/04/06 02:13:27;;;;;;;11.57;1.15;;;;;;;;;;5007911;28;20037;-60
2021/04/06 02:15:56;;;;;;;9.02;1.25;;;;;;;;;;5002984;28;20041;-59
2021/04/06 02:18:22;;;;;;;;;;;;;;;;;;5023701;28;20121;-55
2021/04/06 02:20:51;;;;;;;5.38;0.98;;;;;;;;;;5003237;28;19937;-55
2021/04/06 02:23:18;;;;;;;11.45;1.38;;;;;;;;;;5025501;28;20033;-56
2021/04/06 02:25:49;;;;;;;11.20;1.15;;;;;;;;;;5023430;28;20122;-58
2021/04/06 02:28:15;;;;;;;10.02;1.08;;;;;;;;;;5005668;28;20417;-59
2021/04/06 02:30:49;;;;;;;12.95;1.77;;;;;;;;;;5006110;28;20049;-53
2021/04/06 02:33:17;;;;;;;7.00;1.13;;;;;;;;;;5002425;28;20048;-56
2021/04/06 02:35:52;;;;;;;7.53;1.37;;;;;;;;;;5005969;28;20038;-57
2021/04/06 02:38:18;;;;;;;13.23;1.95;;;;;;;;;;5031369;28;20240;-58
2021/04/06 02:40:44;;;;;;;10.63;1.23;;;;;;;;;;5005996;28;20052;-56
2021/04/06 02:43:14;;;;;;;8.60;1.15;;;;;;;;;;5001378;28;20057;-59
2021/04/06 02:45:40;;;;;;;6.75;0.98;;;;;;;;;;5005168;28;20037;-59
2021/04/06 02:48:10;;;;;;;13.73;1.45;;;;;;;;;;5002667;28;20480;-56
2021/04/06 02:50:38;;;;;;;6.22;1.10;;;;;;;;;;5005447;28;20480;-57
2021/04/06 02:53:06;;;;;;;6.72;0.82;;;;;;;;;;5013468;28;20080;-56
2021/04/06 02:55:33;;;;;;;5.95;0.90;;;;;;;;;;5040953;28;20487;-58
2021/04/06 02:57:59;;;;;;;10.30;1.15;;;;;;;;;;5021408;28;20037;-50
2021/04/06 03:00:32;;;;;;;3.67;0.90;;;;;;;;;;5025029;28;20041;-56
2021/04/06 03:02:59;;;;;;;7.07;0.80;;;;;;;;;;5020362;28;20049;-54
2021/04/06 03:05:29;;;;;;;4.70;1.00;;;;;;;;;;5021490;28;20048;-53
2021/04/06 03:07:56;;;;;;;5.15;0.60;;;;;;;;;;5016565;28;20030;-55
2021/04/06 03:10:22;;;;;;;11.18;1.27;;;;;;;;;;5024132;28;20041;-56
2021/04/06 03:12:49;;;;;;;7.57;1.17;;;;;;;;;;5008086;28;20115;-55
2021/04/06 03:15:20;;;;;;;5.28;0.85;;;;;;;;;;5002767;28;20045;-54
2021/04/06 03:17:49;;;;;;;8.32;1.20;;;;;;;;;;5000620;28;20042;-49
2021/04/06 03:20:15;;;;;;;5.93;0.57;;;;;;;;;;5001613;28;20086;-52
2021/04/06 03:22:42;;;;;;;8.32;0.90;;;;;;;;;;5001784;28;20045;-52
2021/04/06 03:25:10;;;;;;;6.68;0.85;;;;;;;;;;4998462;28;20061;-53
2021/04/06 03:27:36;;;;;;;5.97;0.80;;;;;;;;;;5019750;28;20480;-54
2021/04/06 03:30:02;;;;;;;5.88;1.00;;;;;;;;;;4998136;28;20042;-55
2021/04/06 03:32:29;;;;;;;7.70;0.60;;;;;;;;;;5000679;28;20042;-58
2021/04/06 03:34:55;;;;;;;5.05;1.00;;;;;;;;;;4997706;28;20034;-55
2021/04/06 03:37:21;;;;;;;11.85;0.80;;;;;;;;;;5002042;28;20214;-59
2021/04/06 03:39:48;;;;;;;6.70;0.90;;;;;;;;;;4999252;28;20042;-56
2021/04/06 03:42:21;;;;;;;6.05;1.27;;;;;;;;;;5000281;28;20061;-54
2021/04/06 03:44:47;;;;;;;5.15;0.95;;;;;;;;;;5001400;28;20120;-59
2021/04/06 03:47:13;;;;;;;3.08;0.80;;;;;;;;;;5021433;28;20178;-59
2021/04/06 03:49:46;;;;;;;6.97;1.30;;;;;;;;;;5017001;28;20137;-55
2021/04/06 03:52:12;;;;;;;8.15;1.10;;;;;;;;;;5020855;28;20034;-56
2021/04/06 03:54:39;;;;;;;13.45;1.00;;;;;;;;;;5014235;28;20054;-57
2021/04/06 03:57:45;;;;;;;4.75;0.85;;;;;;;;;;5001633;28;20050;-59
2021/04/06 04:00:12;;;;;;;5.07;0.55;;;;;;;;;;4974902;28;20105;-56
2021/04/06 04:02:40;;;;;;;2.88;0.60;;;;;;;;;;4993680;28;20100;-56
2021/04/06 04:05:06;;;;;;;6.00;0.70;;;;;;;;;;4984230;28;20042;-59
2021/04/06 04:07:32;;;;;;;6.97;0.65;;;;;;;;;;4981899;28;20042;-57
2021/04/06 04:09:58;;;;;;;4.55;0.90;;;;;;;;;;4983123;28;20038;-57
2021/04/06 04:12:25;;;;;;;8.32;0.93;;;;;;;;;;5001015;28;20038;-57
2021/04/06 04:14:51;;;;;;;14.77;1.23;;;;;;;;;;5001864;28;20042;-58
2021/04/06 04:17:18;;;;;;;2.78;0.75;;;;;;;;;;4978808;28;20035;-55
2021/04/06 04:19:44;;;;;;;2.03;0.60;;;;;;;;;;4983348;28;20042;-56
2021/04/06 04:22:11;;;;;;;5.75;1.00;;;;;;;;;;4978586;28;20060;-53
2021/04/06 04:24:36;;;;;;;3.65;0.57;;;;;;;;;;4983567;28;20500;-56
2021/04/06 04:27:03;;;;;;;5.40;0.95;;;;;;;;;;4984358;28;20057;-55
2021/04/06 04:29:29;;;;;;;3.83;0.70;;;;;;;;;;4980764;28;20496;-55
2021/04/06 04:31:55;;;;;;;3.13;0.65;;;;;;;;;;4977900;28;20079;-56
2021/04/06 04:34:21;;;;;;;5.97;0.93;;;;;;;;;;4981883;28;20616;-57
2021/04/06 04:36:47;;;;;;;10.65;0.77;;;;;;;;;;4987602;28;20112;-56
2021/04/06 04:39:13;;;;;;;7.80;0.90;;;;;;;;;;5004087;28;20042;-51
2021/04/06 04:41:41;;;;;;;4.43;0.75;;;;;;;;;;4999352;28;20030;-55
2021/04/06 04:44:07;;;;;;;5.20;1.00;;;;;;;;;;5003806;28;20104;-56
2021/04/06 04:46:33;;;;;;;8.23;1.08;;;;;;;;;;4985328;28;20046;-54
2021/04/06 04:48:59;;;;;;;3.33;0.80;;;;;;;;;;5002971;28;20109;-49
2021/04/06 04:51:28;;;;;;;5.00;0.82;;;;;;;;;;5003267;28;20034;-55
2021/04/06 04:53:54;;;;;;;;;;;;;;;;;;5004879;28;20052;-56
2021/04/06 04:56:20;;;;;;;7.63;0.82;;;;;;;;;;5002543;28;19921;-53
2021/04/06 04:58:46;;;;;;;6.43;0.75;;;;;;;;;;5000715;28;20093;-55
2021/04/06 05:01:12;;;;;;;3.97;0.80;;;;;;;;;;5002648;28;20049;-53
2021/04/06 05:03:38;;;;;;;5.13;1.20;;;;;;;;;;4999582;28;20054;-52
2021/04/06 05:06:04;;;;;;;11.68;1.67;;;;;;;;;;5025429;28;20110;-52
2021/04/06 05:08:33;;;;;;;8.95;1.95;;;;;;;;;;5022868;28;20056;-55
2021/04/06 05:10:59;;;;;;;13.35;3.88;;;;;;;;;;5026353;28;20051;-55
2021/04/06 05:13:26;;;;;;;8.18;1.98;;;;;;;;;;5014176;28;20045;-60
2021/04/06 05:15:52;;;;;;;3.35;0.77;;;;;;;;;;5021753;28;20541;-59
2021/04/06 05:18:18;;;;;;;5.03;0.70;;;;;;;;;;5018650;28;20049;-60
2021/04/06 05:20:44;;;;;;;7.45;0.82;;;;;;;;;;5022022;28;20041;-59
2021/04/06 05:23:11;;;;;;;5.90;0.82;;;;;;;;;;5015534;28;20105;-55
2021/04/06 05:25:40;;;;;;;8.60;0.80;;;;;;;;;;5018220;28;20041;-60
2021/04/06 05:28:06;;;;;;;9.65;1.35;;;;;;;;;;5012062;28;20498;-59
2021/04/06 05:30:32;;;;;;;7.35;0.95;;;;;;;;;;5018883;28;20034;-60
2021/04/06 05:32:58;;;;;;;4.60;1.13;;;;;;;;;;5019169;28;20114;-59
2021/04/06 05:35:24;;;;;;;12.88;1.02;;;;;;;;;;5019531;28;20053;-58
2021/04/06 05:37:50;;;;;;;10.77;1.45;;;;;;;;;;5020841;28;20065;-58
2021/04/06 05:40:16;;;;;;;5.68;0.90;;;;;;;;;;5017230;28;20064;-59
2021/04/06 05:42:43;;;;;;;8.07;1.10;;;;;;;;;;5020369;28;20048;-60
2021/04/06 05:45:10;;;;;;;21.35;6.15;;;;;;;;;;5033123;28;20037;-59
2021/04/06 05:47:39;;;;;;;15.25;3.95;;;;;;;;;;5023997;28;20041;-56
2021/04/06 05:50:06;;;;;;;11.65;2.35;;;;;;;;;;5033567;28;20061;-58
2021/04/06 05:52:33;;;;;;;3.45;0.95;;;;;;;;;;5019939;28;20038;-57
2021/04/06 05:55:00;;;;;;;12.25;1.15;;;;;;;;;;5014649;28;20037;-53
2021/04/06 05:57:26;;;;;;;7.43;1.10;;;;;;;;;;5021827;28;20072;-59
2021/04/06 05:59:53;;;;;;;6.85;1.58;;;;;;;;;;5018110;28;20037;-58
2021/04/06 06:02:21;;;;;;;1.55;0.60;;;;;;;;;;5018034;28;20053;-55
2021/04/06 06:04:47;;;;;;;4.43;0.73;;;;;;;;;;5033471;28;20527;-60
2021/04/06 06:07:13;;;;;;;8.38;1.77;;;;;;;;;;5022532;28;20051;-59
2021/04/06 06:09:40;;;;;;;15.35;4.80;;;;;;;;;;5016929;28;20037;-59
2021/04/06 06:12:06;;;;;;;9.70;1.70;;;;;;;;;;5019191;28;20610;-54
2021/04/06 06:14:34;;;;;;;9.30;1.20;;;;;;;;;;5024988;28;20056;-54
2021/04/06 06:17:13;;;;;;;5.35;0.93;;;;;;;;;;5022416;28;20051;-54
2021/04/06 06:19:40;;;;;;;3.80;1.00;;;;;;;;;;5026795;28;20033;-55
2021/04/06 06:22:11;;;;;;;10.60;1.25;;;;;;;;;;5040358;28;20064;-59
2021/04/06 06:24:40;;;;;;;8.77;1.23;;;;;;;;;;5023052;28;20052;-55
2021/04/06 06:27:21;;;;;;;6.10;1.25;;;;;;;;;;5020750;28;20467;-57
2021/04/06 06:29:47;;;;;;;2.28;0.65;;;;;;;;;;5021951;28;20145;-60
2021/04/06 06:32:19;;;;;;;6.30;1.02;;;;;;;;;;5035484;28;20412;-60
2021/04/06 06:34:45;;;;;;;5.95;1.13;;;;;;;;;;5025704;28;20384;-60
2021/04/06 06:37:13;;;;;;;6.07;1.20;;;;;;;;;;5008505;28;20042;-59
2021/04/06 06:39:40;;;;;;;11.85;1.17;;;;;;;;;;5004253;28;20054;-60
2021/04/06 06:42:08;;;;;;;2.92;0.90;;;;;;;;;;5000526;28;20048;-57
2021/04/06 06:44:35;;;;;;;5.40;0.80;;;;;;;;;;5005397;28;20052;-60
2021/04/06 06:47:11;;;;;;;5.68;0.98;;;;;;;;;;5017527;28;20037;-59
2021/04/06 06:49:39;;;;;;;4.82;0.93;;;;;;;;;;5027802;28;20285;-60
2021/04/06 06:52:24;;;;;;;6.00;1.15;;;;;;;;;;5019058;28;20038;-60
2021/04/06 06:54:51;;;;;;;3.90;0.82;;;;;;;;;;5004357;28;20397;-55
2021/04/06 06:57:17;;;;;;;4.22;1.00;;;;;;;;;;5026202;28;20044;-60
2021/04/06 06:59:45;;;;;;;5.53;0.73;;;;;;;;;;5025617;28;20037;-59
2021/04/06 07:02:21;;;;;;;9.20;0.93;;;;;;;;;;5019833;28;20056;-59
2021/04/06 07:04:48;;;;;;;7.00;1.00;;;;;;;;;;5042208;28;20041;-53
2021/04/06 07:07:15;;;;;;;3.58;0.80;;;;;;;;;;5010164;28;20523;-57
2021/04/06 07:09:41;;;;;;;5.93;1.00;;;;;;;;;;5004006;28;20038;-59
2021/04/06 07:12:12;;;;;;;5.15;0.75;;;;;;;;;;5020335;28;20057;-59
2021/04/06 07:14:39;;;;;;;5.32;1.02;;;;;;;;;;5004506;28;20049;-58
2021/04/06 07:17:06;;;;;;;6.03;1.17;;;;;;;;;;5004072;28;20049;-57
2021/04/06 07:19:33;;;;;;;7.15;0.90;;;;;;;;;;5003682;28;20030;-54
2021/04/06 07:22:03;;;;;;;1.95;0.65;;;;;;;;;;5002748;28;20413;-58
2021/04/06 07:24:32;;;;;;;8.18;0.77;;;;;;;;;;5017546;28;20040;-58
2021/04/06 07:26:58;;;;;;;7.05;1.05;;;;;;;;;;5023171;28;20049;-53
2021/04/06 07:29:26;;;;;;;4.07;0.82;;;;;;;;;;5019151;28;20033;-56
2021/04/06 07:31:52;;;;;;;3.45;0.70;;;;;;;;;;5041015;28;20056;-60
2021/04/06 07:34:20;;;;;;;4.57;0.65;;;;;;;;;;5007959;28;20405;-57
2021/04/06 07:36:47;;;;;;;7.90;1.65;;;;;;;;;;5003748;28;20085;-58
2021/04/06 07:39:20;;;;;;;5.60;0.68;;;;;;;;;;5011349;28;20044;-55
2021/04/06 07:41:47;;;;;;;4.75;0.77;;;;;;;;;;5026329;28;20041;-55
2021/04/06 07:44:14;;;;;;;4.10;0.93;;;;;;;;;;5030288;28;20060;-55
2021/04/06 07:46:44;;;;;;;3.70;0.90;;;;;;;;;;5024642;28;20061;-60
2021/04/06 07:49:11;;;;;;;2.70;0.40;;;;;;;;;;5020020;28;20571;-57
2021/04/06 07:51:39;;;;;;;5.78;0.82;;;;;;;;;;5022824;28;20029;-58
2021/04/06 07:54:07;;;;;;;4.37;0.90;;;;;;;;;;5020726;28;20064;-55
2021/04/06 07:57:00;;;;;;;3.33;0.70;;;;;;;;;;5024888;28;20820;-57
2021/04/06 07:59:51;;;;;;;5.85;0.77;;;;;;;;;;5020837;28;20130;-59
2021/04/06 08:02:31;;;;;;;4.57;1.30;;;;;;;;;;5024201;28;20122;-58
2021/04/06 08:04:58;;;;;;;0.93;0.52;;;;;;;;;;5008874;28;20086;-59
2021/04/06 08:07:25;;;;;;;4.35;0.88;;;;;;;;;;5028080;28;20041;-59
2021/04/06 08:09:51;;;;;;;1.98;0.57;;;;;;;;;;5010837;28;20120;-60
2021/04/06 08:12:18;;;;;;;1.38;0.50;;;;;;;;;;5003834;28;20057;-57
2021/04/06 08:14:46;;;;;;;7.85;0.90;;;;;;;;;;5016569;28;20038;-59
2021/04/06 08:17:31;;;;;;;5.43;0.88;;;;;;;;;;5003366;28;20046;-57
2021/04/06 08:19:59;;;;;;;2.50;0.50;;;;;;;;;;5017424;28;21199;-60
2021/04/06 08:22:26;;;;;;;5.15;0.60;;;;;;;;;;5000376;28;20116;-52
2021/04/06 08:24:52;;;;;;;4.75;0.93;;;;;;;;;;5000597;28;20050;-59
2021/04/06 08:27:32;;;;;;;0.90;0.40;;;;;;;;;;5003193;28;20060;-57
2021/04/06 08:30:15;;;;;;;2.22;0.45;;;;;;;;;;4992102;28;20033;-57
2021/04/06 08:32:42;;;;;;;5.10;0.80;;;;;;;;;;4995482;28;20050;-59
2021/04/06 08:35:09;;;;;;;2.50;0.82;;;;;;;;;;5003010;28;20038;-57
2021/04/06 08:37:37;;;;;;;3.58;0.77;;;;;;;;;;5020558;28;20484;-57
2021/04/06 08:40:03;;;;;;;4.50;0.73;;;;;;;;;;5022270;28;20042;-58
2021/04/06 08:42:33;;;;;;;3.65;1.23;;;;;;;;;;5032624;28;20042;-54
2021/04/06 08:45:00;;;;;;;1.80;0.43;;;;;;;;;;5016335;28;20312;-60
2021/04/06 08:47:43;;;;;;;3.95;0.60;;;;;;;;;;4997966;28;20045;-56
2021/04/06 08:50:11;;;;;;;2.15;0.57;;;;;;;;;;5002293;28;20030;-57
2021/04/06 08:52:37;;;;;;;10.50;1.00;;;;;;;;;;5013051;28;20361;-55
2021/04/06 08:55:11;;;;;;;3.10;0.75;;;;;;;;;;5023243;28;20428;-60
2021/04/06 08:57:38;;;;;;;2.95;0.52;;;;;;;;;;5006294;28;20057;-52
2021/04/06 09:00:12;;;;;;;3.17;0.57;;;;;;;;;;5004405;28;20061;-58
2021/04/06 09:02:39;;;;;;;4.10;0.52;;;;;;;;;;5002464;28;20034;-55
2021/04/06 09:05:06;;;;;;;1.40;0.55;;;;;;;;;;4993370;28;20035;-57
2021/04/06 09:07:35;;;;;;;2.00;0.50;;;;;;;;;;4982290;28;20464;-58
2021/04/06 09:10:04;;;;;;;3.38;0.70;;;;;;;;;;4984617;28;20050;-57
2021/04/06 09:12:32;;;;;;;4.75;0.88;;;;;;;;;;4980518;28;20095;-59
2021/04/06 09:14:58;;;;;;;6.75;1.13;;;;;;;;;;4983494;28;20058;-60
2021/04/06 09:17:26;;;;;;;9.20;1.38;;;;;;;;;;4985325;28;20042;-55
2021/04/06 09:19:52;;;;;;;7.78;0.70;;;;;;;;;;5002911;28;20042;-59
2021/04/06 09:22:19;;;;;;;9.48;0.93;;;;;;;;;;4997660;28;20641;-60
2021/04/06 09:24:46;;;;;;;3.20;0.82;;;;;;;;;;5000148;28;20063;-59
2021/04/06 09:27:11;;;;;;;4.90;0.98;;;;;;;;;;4981312;28;20083;-56
2021/04/06 09:29:39;;;;;;;4.63;0.93;;;;;;;;;;4982973;28;20130;-60
2021/04/06 09:32:07;;;;;;;6.20;0.73;;;;;;;;;;4983014;28;20053;-59
2021/04/06 09:34:34;;;;;;;5.18;0.82;;;;;;;;;;4978829;28;20046;-59
2021/04/06 09:37:01;;;;;;;2.80;0.40;;;;;;;;;;4982984;28;20144;-58
2021/04/06 09:39:29;;;;;;;3.60;0.65;;;;;;;;;;4979972;28;20057;-54
2021/04/06 09:41:56;;;;;;;3.53;0.55;;;;;;;;;;4983197;28;20071;-57
2021/04/06 09:44:23;;;;;;;1.33;0.50;;;;;;;;;;4998842;28;20026;-59
2021/04/06 09:46:53;;;;;;;5.90;0.90;;;;;;;;;;5002549;28;20053;-57
2021/04/06 09:49:19;;;;;;;2.90;0.80;;;;;;;;;;4999571;28;20402;-57
2021/04/06 09:51:46;;;;;;;4.50;0.55;;;;;;;;;;5018091;28;20127;-57
2021/04/06 09:54:12;;;;;;;3.70;0.63;;;;;;;;;;4992524;28;20045;-57
2021/04/06 09:56:39;;;;;;;5.72;0.60;;;;;;;;;;4987895;28;20066;-57
2021/04/06 09:59:06;;;;;;;1.85;0.50;;;;;;;;;;4992309;28;20057;-58
2021/04/06 10:01:33;;;;;;;5.75;0.90;;;;;;;;;;5023252;28;20038;-60
2021/04/06 10:04:01;;;;;;;1.55;0.70;;;;;;;;;;5017631;28;20049;-58
2021/04/06 10:06:34;;;;;;;6.07;0.80;;;;;;;;;;5022570;28;20046;-55
2021/04/06 10:09:15;;;;;;;1.60;0.65;;;;;;;;;;5018449;28;20037;-58
2021/04/06 10:11:42;;;;;;;5.30;1.10;;;;;;;;;;5037978;28;20115;-57
2021/04/06 10:14:09;;;;;;;3.10;0.93;;;;;;;;;;5017909;28;20409;-55
2021/04/06 10:16:35;;;;;;;10.27;0.98;;;;;;;;;;5018997;28;20041;-56
2021/04/06 10:19:17;;;;;;;3.97;1.00;;;;;;;;;;5021019;28;20052;-53
2021/04/06 10:21:43;;;;;;;8.75;1.55;;;;;;;;;;5004769;28;20046;-56
2021/04/06 10:24:09;;;;;;;3.80;0.70;;;;;;;;;;5006402;28;20049;-59
2021/04/06 10:26:35;;;;;;;10.80;2.38;;;;;;;;;;5018371;28;20074;-56
2021/04/06 10:29:02;;;;;;;5.75;1.02;;;;;;;;;;5026937;28;20041;-56
2021/04/06 10:31:44;;;;;;;10.48;1.13;;;;;;;;;;5009943;28;20095;-55
2021/04/06 10:34:10;;;;;;;1.92;0.38;;;;;;;;;;5006006;28;20127;-60
2021/04/06 10:36:36;;;;;;;2.08;0.80;;;;;;;;;;5002727;28;20427;-59
2021/04/06 10:39:03;;;;;;;4.78;0.55;;;;;;;;;;5024685;28;20044;-60
2021/04/06 10:41:30;;;;;;;3.50;0.65;;;;;;;;;;5001721;28;20048;-57
2021/04/06 10:43:56;;;;;;;1.92;0.55;;;;;;;;;;5021595;28;20045;-55
2021/04/06 10:46:23;;;;;;;2.55;0.65;;;;;;;;;;5010867;28;20068;-58
2021/04/06 10:48:51;;;;;;;2.15;0.80;;;;;;;;;;5014403;28;20037;-57
2021/04/06 10:51:18;;;;;;;1.17;0.40;;;;;;;;;;5020551;28;20044;-60
2021/04/06 10:53:46;;;;;;;5.60;0.73;;;;;;;;;;5021484;28;20042;-57
2021/04/06 10:56:13;;;;;;;3.00;0.60;;;;;;;;;;5025923;28;20055;-60
2021/04/06 10:58:40;;;;;;;5.45;0.80;;;;;;;;;;5044795;28;20044;-57
2021/04/06 11:01:08;;;;;;;7.55;0.65;;;;;;;;;;5036714;28;20048;-60
2021/04/06 11:03:38;;;;;;;7.13;0.73;;;;;;;;;;5042773;28;20502;-60
2021/04/06 11:06:16;;;;;;;5.40;0.80;;;;;;;;;;5021403;28;20541;-59
2021/04/06 11:08:42;;;;;;;6.35;0.90;;;;;;;;;;5042071;28;20037;-60
2021/04/06 11:11:23;;;;;;;7.13;1.17;;;;;;;;;;5023639;28;20045;-58
2021/04/06 11:13:50;;;;;;;5.43;0.85;;;;;;;;;;5039377;28;20048;-58
2021/04/06 11:16:16;;;;;;;2.45;0.70;;;;;;;;;;5024576;28;20048;-59
2021/04/06 11:18:43;;;;;;;4.07;0.70;;;;;;;;;;5003311;28;20054;-53
2021/04/06 11:21:09;;;;;;;4.43;1.15;;;;;;;;;;5004390;28;20030;-60
2021/04/06 11:23:36;;;;;;;2.58;0.90;;;;;;;;;;5029718;28;20038;-59
2021/04/06 11:26:03;;;;;;;8.23;0.90;;;;;;;;;;5004931;28;20099;-59
2021/04/06 11:28:28;;;;;;;4.53;0.88;;;;;;;;;;5002516;28;20042;-59
2021/04/06 11:30:55;;;;;;;5.78;1.30;;;;;;;;;;5005024;28;20026;-56
2021/04/06 11:33:22;;;;;;;10.63;1.15;;;;;;;;;;5011041;28;20064;-57
2021/04/06 11:35:48;;;;;;;7.97;1.00;;;;;;;;;;5041102;28;20048;-60
2021/04/06 11:38:16;;;;;;;4.25;0.73;;;;;;;;;;5012955;28;20401;-59
2021/04/06 11:40:43;;;;;;;8.93;0.40;;;;;;;;;;5003798;28;20037;-57
2021/04/06 11:43:09;;;;;;;0.60;0.30;;;;;;;;;;5001005;28;20046;-59
2021/04/06 11:45:35;;;;;;;2.05;0.50;;;;;;;;;;5013460;28;20025;-54
2021/04/06 11:48:01;;;;;;;1.98;0.52;;;;;;;;;;5016652;28;20107;-58
2021/04/06 11:50:27;;;;;;;1.15;0.38;;;;;;;;;;5004955;28;20057;-53
2021/04/06 11:52:55;;;;;;;2.42;0.40;;;;;;;;;;5002429;28;20045;-59
2021/04/06 11:55:21;;;;;;;2.67;0.50;;;;;;;;;;5001849;28;20053;-53
2021/04/06 11:57:47;;;;;;;1.85;0.77;;;;;;;;;;5003311;28;20058;-56
2021/04/06 12:00:15;;;;;;;3.30;1.13;;;;;;;;;;5014339;28;20104;-58
2021/04/06 12:02:41;;;;;;;2.60;0.85;;;;;;;;;;4986900;28;20030;-60
2021/04/06 12:05:12;;;;;;;6.65;1.00;;;;;;;;;;5007892;28;20053;-59
2021/04/06 12:07:37;;;;;;;3.53;1.15;;;;;;;;;;5018782;28;20050;-58
2021/04/06 12:10:05;;;;;;;3.63;1.00;;;;;;;;;;5021021;28;20053;-57
2021/04/06 12:12:31;;;;;;;5.65;1.00;;;;;;;;;;4999357;28;20038;-59
2021/04/06 12:14:58;;;;;;;4.43;1.10;;;;;;;;;;4998860;28;20038;-60
2021/04/06 12:17:24;;;;;;;3.17;0.75;;;;;;;;;;5017445;28;20043;-60
2021/04/06 12:19:50;;;;;;;5.07;1.10;;;;;;;;;;5011918;28;20031;-58
2021/04/06 12:22:18;;;;;;;8.65;1.17;;;;;;;;;;5011947;28;20070;-60
2021/04/06 12:24:44;;;;;;;3.88;0.80;;;;;;;;;;5010880;28;20046;-60
2021/04/06 12:27:10;;;;;;;4.72;0.65;;;;;;;;;;4999380;28;20038;-60
2021/04/06 12:29:36;;;;;;;6.18;0.80;;;;;;;;;;4998553;28;20033;-59
2021/04/06 12:32:03;;;;;;;4.07;0.85;;;;;;;;;;5018448;28;20038;-56
2021/04/06 12:34:29;;;;;;;4.75;1.10;;;;;;;;;;5016007;28;20053;-58
2021/04/06 12:36:57;;;;;;;5.88;0.75;;;;;;;;;;4997716;28;20042;-59
2021/04/06 12:39:22;;;;;;;6.07;1.02;;;;;;;;;;4999168;28;20073;-55
2021/04/06 12:41:49;;;;;;;6.18;0.95;;;;;;;;;;4997877;28;20030;-60
2021/04/06 12:44:15;;;;;;;6.13;0.80;;;;;;;;;;4998764;28;20509;-58
2021/04/06 12:46:41;;;;;;;4.68;0.57;;;;;;;;;;5024604;28;20030;-57
2021/04/06 12:49:08;;;;;;;2.00;0.47;;;;;;;;;;5000275;28;20038;-58
2021/04/06 12:51:34;;;;;;;1.55;0.50;;;;;;;;;;5008642;28;20038;-59
2021/04/06 12:54:00;;;;;;;7.00;0.57;;;;;;;;;;5020628;28;21712;-57
2021/04/06 12:56:26;;;;;;;0.38;0.30;;;;;;;;;;5017165;28;20065;-59
2021/04/06 12:58:52;;;;;;;1.10;0.20;;;;;;;;;;5024275;28;20056;-58
2021/04/06 13:01:20;;;;;;;1.05;0.30;;;;;;;;;;5012946;28;20044;-59
2021/04/06 13:03:46;;;;;;;3.58;0.40;;;;;;;;;;5004343;28;20046;-58
2021/04/06 13:06:13;;;;;;;3.72;0.80;;;;;;;;;;5002375;28;20069;-59
2021/04/06 13:08:38;;;;;;;3.63;0.55;;;;;;;;;;5005725;28;20042;-59
2021/04/06 13:11:04;;;;;;;0.57;0.32;;;;;;;;;;5021898;28;20044;-59
2021/04/06 13:13:32;;;;;;;3.63;0.75;;;;;;;;;;5006170;28;20048;-58
2021/04/06 13:15:58;;;;;;;6.68;0.77;;;;;;;;;;5006664;28;20135;-57
2021/04/06 13:18:24;;;;;;;3.85;1.00;;;;;;;;;;5023711;28;20053;-61
2021/04/06 13:20:50;;;;;;;5.55;1.05;;;;;;;;;;5006958;28;20056;-59
2021/04/06 13:23:20;;;;;;;2.47;0.60;;;;;;;;;;5018907;28;20360;-57
2021/04/06 13:25:46;;;;;;;6.53;0.70;;;;;;;;;;5028230;28;20045;-59
2021/04/06 13:28:12;;;;;;;4.45;0.63;;;;;;;;;;5011471;28;20050;-59
2021/04/06 13:30:38;;;;;;;4.80;0.60;;;;;;;;;;5009396;28;20044;-61
2021/04/06 13:33:04;;;;;;;2.83;0.77;;;;;;;;;;5012723;28;20102;-60
2021/04/06 13:35:30;;;;;;;2.13;0.57;;;;;;;;;;5017623;28;20045;-60
2021/04/06 13:37:56;;;;;;;9.30;1.38;;;;;;;;;;5022395;28;20495;-59
2021/04/06 13:40:24;;;;;;;5.28;1.00;;;;;;;;;;5026428;28;20088;-57
2021/04/06 13:42:50;;;;;;;4.05;0.77;;;;;;;;;;5038918;28;20022;-53
2021/04/06 13:45:18;;;;;;;6.90;0.75;;;;;;;;;;5024760;28;20296;-59
2021/04/06 13:47:44;;;;;;;6.70;1.13;;;;;;;;;;5019694;28;20050;-61
2021/04/06 13:50:11;;;;;;;2.25;0.73;;;;;;;;;;5005184;28;20275;-58
2021/04/06 13:52:37;;;;;;;5.90;0.70;;;;;;;;;;5003287;28;20057;-60
2021/04/06 13:55:04;;;;;;;5.03;0.85;;;;;;;;;;5042981;28;20086;-57
2021/04/06 13:57:32;;;;;;;3.83;0.65;;;;;;;;;;5024731;28;20051;-56
2021/04/06 13:59:58;;;;;;;4.90;0.73;;;;;;;;;;5004683;28;20048;-59
2021/04/06 14:02:24;;;;;;;8.32;0.88;;;;;;;;;;5006067;28;20041;-59
2021/04/06 14:04:50;;;;;;;3.88;0.80;;;;;;;;;;4988644;28;20461;-60
2021/04/06 14:07:16;;;;;;;7.55;0.98;;;;;;;;;;4981177;28;20039;-60
2021/04/06 14:09:42;;;;;;;3.55;0.77;;;;;;;;;;4978927;28;20038;-58
2021/04/06 14:12:08;;;;;;;4.88;0.82;;;;;;;;;;4991863;28;20057;-53
2021/04/06 14:14:35;;;;;;;8.40;1.38;;;;;;;;;;4987924;28;20053;-55
2021/04/06 14:17:01;;;;;;;3.45;0.63;;;;;;;;;;4981262;28;20054;-56
2021/04/06 14:19:27;;;;;;;3.38;0.63;;;;;;;;;;4981665;28;20518;-56
2021/04/06 14:21:53;;;;;;;0.60;0.30;;;;;;;;;;4976459;28;20046;-55
2021/04/06 14:24:19;;;;;;;4.90;0.70;;;;;;;;;;4984262;28;20042;-58
2021/04/06 14:26:45;;;;;;;3.65;0.43;;;;;;;;;;4981561;28;20054;-60
2021/04/06 14:29:11;;;;;;;2.25;0.52;;;;;;;;;;4978292;28;20054;-58
2021/04/06 14:31:39;;;;;;;2.85;0.70;;;;;;;;;;4982212;28;20039;-56
2021/04/06 14:34:06;;;;;;;3.55;0.50;;;;;;;;;;4981380;28;20050;-53
2021/04/06 14:36:32;;;;;;;6.03;0.60;;;;;;;;;;4998198;28;20034;-57
2021/04/06 14:38:58;;;;;;;3.05;0.80;;;;;;;;;;5002474;28;20520;-57
2021/04/06 14:41:24;;;;;;;6.50;0.82;;;;;;;;;;4981305;28;20034;-55
2021/04/06 14:43:50;;;;;;;2.50;0.65;;;;;;;;;;4982659;28;20057;-57
2021/04/06 14:46:17;;;;;;;3.60;0.80;;;;;;;;;;4963856;28;20146;-55